• Join FlightAware (Why Join?)
  • Login
  • US Flag 
01:44AM EDT


 

Airport Tracker/Info


-or-


 

Live Flight TrackerFlight Track Log ✈ UAL906 ✈ 21-Apr-2013 ✈ KORD - EDDM / MUC

Flight Track Log - Related Links

Times and Time Zones

All times are in EDT time to prevent confusion due to time zone crossing. See the UAL906 flight status page for this flight to view local times or setup timezone preferences in your user account.

Time Position Orientation Groundspeed Altitude Reporting Facility
EDT Latitude Longitude Course Direction KTS MPH feet Rate Location/Type
07:02PM 41.9850 -87.8960 143° Southeast 164 189 500  Level FlightAware
07:02PM 41.9800 -87.8810 114° Southeast 166 191 1,300 1,800 Climbing FlightAware
07:02PM 41.9780 -87.8530 95° East 198 228 1,700 1,500 Climbing FlightAware
07:03PM 41.9750 -87.8130 96° East 225 259 2,700 2,100 Climbing FlightAware
07:03PM 41.9720 -87.7680 95° East 250 288 3,800 1,800 Climbing FlightAware
07:04PM 41.9690 -87.7300 96° East 271 312 4,400 1,320 Climbing FlightAware
07:04PM 41.9660 -87.7010 98° East 278 320 4,700 2,100 Climbing FlightAware
07:05PM 41.9610 -87.6500 97° East 284 327 6,000 2,640 Climbing FlightAware
07:05PM 41.9730 -87.5820 77° East 291 335 7,800 2,640 Climbing FlightAware
07:06PM 41.9920 -87.5480 53° Northeast 294 338 8,900 2,520 Climbing FlightAware
07:06PM 42.0100 -87.5170 52° Northeast 306 352 9,700 1,500 Climbing FlightAware
07:07PM 42.0490 -87.4490 52° Northeast 356 410 10,400 1,860 Climbing FlightAware
07:07PM 42.0890 -87.3820 51° Northeast 364 419 12,200 2,580 Climbing FlightAware
07:08PM 42.1390 -87.2970 52° Northeast 380 437 14,100 2,220 Climbing FlightAware
07:09PM 42.1770 -87.2180 57° Northeast 395 455 15,400 1,980 Climbing FlightAware
07:09PM 42.1860 -87.1410 81° East 400 460 16,600 1,920 Climbing FlightAware
07:10PM 42.1950 -87.0110 85° East 418 481 18,200 2,040 Climbing FlightAware
07:11PM 42.2020 -86.8960 85° East 427 491 19,700 2,040 Climbing FlightAware
07:12PM 42.2090 -86.7800 85° East 436 502 21,100 1,800 Climbing FlightAware
07:12PM 42.2150 -86.6750 86° East 442 509 22,300 1,800 Climbing FlightAware
07:13PM 42.2220 -86.5610 85° East 450 518 23,500 1,680 Climbing FlightAware
07:14PM 42.2290 -86.4340 86° East 458 527 24,700 1,500 Climbing FlightAware
07:14PM 42.2360 -86.3130 85° East 466 536 25,700 1,380 Climbing FlightAware
07:15PM 42.2420 -86.2030 86° East 473 544 26,600 1,440 Climbing FlightAware
07:16PM 42.2500 -86.0670 85° East 476 548 27,800 1,620 Climbing FlightAware
07:17PM 42.2570 -85.9350 86° East 474 545 29,100 1,680 Climbing FlightAware
07:17PM 42.2630 -85.8130 86° East 473 544 30,200 1,380 Climbing FlightAware
07:18PM 42.2690 -85.6950 86° East 473 544 31,000 540 Climbing FlightAware
07:19PM 42.2750 -85.5650 86° East 471 542 31,000  Level FlightAware
07:19PM 42.2810 -85.4490 86° East 470 541 31,000  Level FlightAware
07:20PM 42.2860 -85.3330 87° East 469 540 31,000  Level FlightAware
07:21PM 42.2920 -85.2040 86° East 469 540 31,000  Level FlightAware
07:21PM 42.2980 -85.0820 86° East 469 540 31,000  Level FlightAware
07:22PM 42.2990 -85.0200 89° East 470 541 31,000  Level FlightAware
07:23PM 42.2970 -84.8780 91° East 469 540 31,000  Level FlightAware
07:23PM 42.2940 -84.7690 92° East 468 539 31,000  Level FlightAware
07:24PM 42.2900 -84.6330 92° East 469 540 31,000  Level FlightAware
07:25PM 42.2870 -84.5140 92° East 471 542 31,000  Level FlightAware
07:25PM 42.2980 -84.3850 83° East 474 545 31,000  Level FlightAware
07:26PM 42.3150 -84.2660 79° East 475 547 31,000  Level FlightAware
07:27PM 42.3340 -84.1350 79° East 476 548 31,000  Level FlightAware
07:28PM 42.3510 -84.0130 79° East 478 550 31,000  Level FlightAware
07:28PM 42.3680 -83.8910 79° East 479 551 31,000  Level FlightAware
07:29PM 42.3830 -83.7820 79° East 479 551 31,000  Level FlightAware
07:30PM 42.4040 -83.6340 79° East 480 552 31,000  Level FlightAware
07:30PM 42.4300 -83.5330 71° East 480 552 31,000  Level FlightAware
07:31PM 42.4710 -83.4090 66° East 480 552 31,000  Level FlightAware
07:32PM 42.5120 -83.2860 66° East 481 554 31,000  Level FlightAware
07:33PM 42.5550 -83.1600 65° Northeast 481 554 31,000  Level FlightAware
07:33PM 42.5900 -83.0530 66° East 482 555 31,000  Level FlightAware
07:34PM 42.6310 -82.9300 66° East 483 556 31,000  Level FlightAware
07:35PM 42.6680 -82.8200 65° Northeast 483 556 31,000  Level FlightAware
07:36PM 42.7150 -82.6770 66° East 483 556 31,000  Level FlightAware
07:36PM 42.7490 -82.5730 66° East 484 557 31,000  Level FlightAware
07:37PM 42.7920 -82.4380 66° East 485 558 31,000  Level FlightAware
07:38PM 42.8330 -82.3140 66° East 486 559 31,000  Level FlightAware
07:38PM 42.8700 -82.2000 66° East 486 559 31,000  Level FlightAware
07:39PM 42.9070 -82.0830 67° East 486 559 31,000  Level FlightAware
07:40PM 42.9460 -81.9630 66° East 488 562 31,000  Level FlightAware
07:40PM 42.9750 -81.8710 67° East 488 562 31,000  Level FlightAware
07:41PM 43.0210 -81.7260 67° East 489 563 31,000  Level FlightAware
07:42PM 43.0580 -81.6090 67° East 490 564 31,000  Level FlightAware
07:43PM 43.1040 -81.4620 67° East 490 564 31,000  Level FlightAware
07:43PM 43.1430 -81.3370 67° East 491 565 31,000  Level FlightAware
07:44PM 43.1790 -81.2210 67° East 491 565 31,000  Level FlightAware
07:45PM 43.2160 -81.1050 66° East 490 564 31,000  Level FlightAware
07:45PM 43.2550 -80.9760 67° East 489 563 31,000  Level FlightAware
07:46PM 43.2910 -80.8610 67° East 489 563 31,000  Level FlightAware
07:47PM 43.3240 -80.7500 68° East 489 563 31,000  Level FlightAware
07:48PM 43.3640 -80.6210 67° East 488 562 31,000  Level FlightAware
07:48PM 43.3990 -80.5040 68° East 489 563 31,000  Level FlightAware
07:49PM 43.4380 -80.3750 67° East 489 563 31,000  Level FlightAware
07:50PM 43.4710 -80.2670 67° East 488 562 31,000  Level FlightAware
07:50PM 43.5110 -80.1310 68° East 489 563 31,000  Level FlightAware
07:51PM 43.5440 -80.0200 68° East 489 563 31,000  Level FlightAware
07:52PM 43.5780 -79.9040 68° East 489 563 31,000  Level FlightAware
07:52PM 43.6160 -79.7750 68° East 490 564 31,000  Level FlightAware
07:53PM 43.6510 -79.6580 68° East 491 565 31,000  Level FlightAware
07:54PM 43.6870 -79.5250 69° East 493 567 31,000  Level FlightAware
07:55PM 43.7180 -79.4050 70° East 493 567 31,000  Level FlightAware
07:55PM 43.7490 -79.2880 70° East 493 567 31,000  Level FlightAware
07:56PM 43.7810 -79.1670 70° East 494 568 31,000  Level FlightAware
07:57PM 43.8140 -79.0400 70° East 495 570 31,000  Level FlightAware
07:57PM 43.8460 -78.9160 70° East 496 571 31,000  Level FlightAware
07:58PM 43.8830 -78.8070 65° Northeast 497 572 31,000  Level FlightAware
07:59PM 43.9260 -78.6760 65° Northeast 498 573 31,000  Level FlightAware
07:59PM 43.9670 -78.5480 66° East 497 572 31,000  Level FlightAware
08:00PM 44.0030 -78.4330 66° East 499 574 31,000  Level FlightAware
08:01PM 44.0440 -78.3000 67° East 499 574 31,000  Level FlightAware
08:02PM 44.0820 -78.1780 67° East 500 575 31,000  Level FlightAware
08:02PM 44.1180 -78.0620 67° East 500 575 31,000  Level FlightAware
08:03PM 44.1600 -77.9250 67° East 501 577 31,000  Level FlightAware
08:04PM 44.1910 -77.8240 67° East 501 577 31,000  Level FlightAware
08:04PM 44.2310 -77.6930 67° East 501 577 31,000  Level FlightAware
08:05PM 44.2700 -77.5640 67° East 501 577 31,000  Level FlightAware
08:06PM 44.3090 -77.4360 67° East 500 575 31,000  Level FlightAware
08:06PM 44.3500 -77.3020 67° East 499 574 31,000  Level FlightAware
08:07PM 44.3860 -77.1840 67° East 497 572 31,000  Level FlightAware
08:08PM 44.4210 -77.0690 67° East 493 567 31,000  Level FlightAware
08:09PM 44.4650 -76.9220 67° East 489 563 31,000  Level FlightAware
08:09PM 44.4950 -76.8220 67° East 486 559 31,000  Level FlightAware
08:10PM 44.5260 -76.7150 68° East 484 557 31,000  Level FlightAware
08:11PM 44.5670 -76.5790 67° East 481 554 31,000  Level FlightAware
08:11PM 44.6020 -76.4600 68° East 480 552 31,000  Level FlightAware
08:12PM 44.6360 -76.3440 68° East 479 551 31,000  Level FlightAware
08:13PM 44.6710 -76.2240 68° East 480 552 31,000  Level FlightAware
08:13PM 44.7130 -76.0770 68° East 481 554 31,000  Level FlightAware
08:14PM 44.7450 -75.9670 68° East 483 556 31,000  Level FlightAware
08:15PM 44.7840 -75.8310 68° East 485 558 31,000  Level FlightAware
08:16PM 44.8180 -75.7130 68° East 487 560 31,000  Level FlightAware
08:16PM 44.8510 -75.5970 68° East 490 564 31,000  Level FlightAware
08:17PM 44.8850 -75.4770 68° East 492 566 31,000  Level FlightAware
08:18PM 44.9220 -75.3440 69° East 494 568 31,000  Level FlightAware
08:18PM 44.9600 -75.2080 68° East 497 572 31,000  Level FlightAware
08:19PM 44.9940 -75.0890 68° East 498 573 31,000  Level FlightAware
08:20PM 45.0280 -74.9660 69° East 498 573 31,000  Level FlightAware
08:20PM 45.0650 -74.8320 69° East 498 573 31,000  Level FlightAware
08:21PM 45.0980 -74.7120 69° East 498 573 31,000  Level FlightAware
08:22PM 45.1350 -74.5730 69° East 498 573 31,000  Level FlightAware
08:23PM 45.1690 -74.4500 69° East 496 571 31,000  Level FlightAware
08:23PM 45.2020 -74.3290 69° East 495 570 31,000  Level FlightAware
08:24PM 45.2370 -74.1950 70° East 493 567 31,000  Level FlightAware
08:25PM 45.2690 -74.0780 69° East 491 565 31,000  Level FlightAware
08:25PM 45.3060 -73.9360 70° East 490 564 31,000  Level FlightAware
08:26PM 45.3370 -73.8190 69° East 488 562 31,000  Level FlightAware
08:27PM 45.3690 -73.6970 69° East 487 560 31,000  Level FlightAware
08:27PM 45.4040 -73.5660 69° East 487 560 31,000  Level FlightAware
08:28PM 45.4350 -73.4450 70° East 487 560 31,000  Level FlightAware
08:29PM 45.4710 -73.3070 70° East 488 562 31,000  Level FlightAware
08:30PM 45.5020 -73.1860 70° East 489 563 31,000  Level FlightAware
08:30PM 45.5320 -73.0670 70° East 491 565 31,000  Level FlightAware
08:31PM 45.5670 -72.9310 70° East 492 566 31,000  Level FlightAware
08:32PM 45.5970 -72.8110 70° East 493 567 31,000  Level FlightAware
08:32PM 45.6280 -72.6880 70° East 495 570 31,000 540 Level FlightAware
08:33PM 45.6640 -72.5440 70° East 496 571 31,800 1,020 Climbing FlightAware
08:34PM 45.6940 -72.4250 70° East 500 575 32,500 900 Climbing FlightAware
08:34PM 45.7260 -72.2960 70° East 508 585 33,000 300 Climbing FlightAware
08:35PM 45.7610 -72.1550 70° East 509 586 33,000  Level FlightAware
08:36PM 45.7940 -72.0160 71° East 507 583 33,000  Level FlightAware
08:37PM 45.8240 -71.8930 71° East 504 580 33,000  Level FlightAware
08:37PM 45.8550 -71.7680 70° East 501 577 33,000  Level FlightAware
08:38PM 45.8890 -71.6270 71° East 499 574 33,000  Level FlightAware
08:39PM 45.9180 -71.5020 72° East 499 574 33,000  Level FlightAware
08:39PM 45.9480 -71.3770 71° East 501 577 33,000  Level FlightAware
08:40PM 45.9810 -71.2350 71° East 504 580 33,000  Level FlightAware
08:41PM 46.0110 -71.1080 71° East 506 582 33,000  Level FlightAware
08:41PM 46.0440 -70.9650 72° East 509 586 33,000  Level FlightAware
08:42PM 46.0740 -70.8380 71° East 511 588 33,000  Level FlightAware
08:44PM 46.1570 -70.4760 72° East 516 594 33,000  Level FlightAware
08:45PM 46.1880 -70.3380 72° East 517 595 33,000  Level FlightAware
08:45PM 46.2180 -70.2050 72° East 517 595 33,000  Level FlightAware
08:46PM 46.2317 -70.1278 72° East 509 586 33,000 -120 Level Boston Center
08:47PM 46.2758 -69.9486 70° East 509 586 32,900 -60 Descending Boston Center
08:48PM 46.3172 -69.7547 73° East 509 586 32,900  Level Boston Center
08:49PM 46.3606 -69.5600 72° East 504 580 33,000  Climbing Boston Center
08:55PM 46.5980 -68.4360 72° East 505 581 33,000  Level FlightAware
08:55PM 46.6220 -68.3250 72° East 505 581 33,000  Level FlightAware
08:56PM 46.6630 -68.1180 74° East 506 582 33,000  Level FlightAware
08:57PM 46.6850 -68.0070 74° East 506 582 33,000  Level FlightAware
08:57PM 46.7160 -67.8590 73° East 506 582 33,000  Level FlightAware
08:58PM 46.7510 -67.6780 74° East 507 583 33,000  Level FlightAware
08:59PM 46.7780 -67.5380 74° East 507 583 33,000  Level FlightAware
09:00PM 46.8000 -67.4260 74° East 507 583 33,000  Level FlightAware
09:01PM 46.8220 -67.3140 74° East 507 583 33,000  Level FlightAware
09:01PM 46.8440 -67.2020 74° East 507 583 33,000  Level FlightAware
09:02PM 46.8660 -67.0900 74° East 507 583 33,000  Level FlightAware
09:03PM 46.8940 -66.9500 74° East 507 583 33,000  Level FlightAware
09:03PM 46.9160 -66.8370 74° East 507 583 33,000  Level FlightAware
09:04PM 46.9380 -66.7250 74° East 507 583 33,000  Level FlightAware
09:05PM 46.9600 -66.6130 74° East 507 583 33,000  Level FlightAware
09:05PM 46.9810 -66.5000 75° East 507 583 33,000  Level FlightAware
09:06PM 47.0090 -66.3600 74° East 507 583 33,000  Level FlightAware
09:07PM 47.0310 -66.2470 74° East 507 583 33,000  Level FlightAware
09:08PM 47.0530 -66.1350 74° East 507 583 33,000  Level FlightAware
09:08PM 47.2167 -65.8000 74° East 520 598 33,000  Level Moncton Center
09:09PM 47.3000 -65.6000 58° Northeast 530 610 33,000  Level Moncton Center
09:10PM 47.3500 -65.3833 71° East 530 610 33,000  Level Moncton Center
09:11PM 47.4000 -65.1833 70° East 530 610 33,000  Level Moncton Center
09:12PM 47.4667 -64.9833 64° Northeast 530 610 33,000  Level Moncton Center
09:13PM 47.5167 -64.8000 68° East 530 610 33,000  Level Moncton Center
09:14PM 47.5667 -64.6000 70° East 520 598 33,000  Level Moncton Center
09:15PM 47.6167 -64.4000 70° East 520 598 33,000  Level Moncton Center
09:16PM 47.6833 -64.2000 64° Northeast 520 598 33,000  Level Moncton Center
09:17PM 47.7333 -64.0000 70° East 510 587 33,000  Level Moncton Center
09:18PM 47.7833 -63.8000 70° East 510 587 33,000  Level Moncton Center
09:19PM 47.8333 -63.6000 70° East 510 587 33,000  Level Moncton Center
09:20PM 47.9000 -63.4000 64° Northeast 510 587 33,000  Level Moncton Center
09:21PM 47.9500 -63.2000 69° East 520 598 33,000  Level Moncton Center
09:22PM 48.0000 -63.0000 69° East 530 610 33,000  Level Moncton Center
09:23PM 48.0333 -62.8000 76° East 530 610 33,000  Level Moncton Center
09:24PM 48.1000 -62.5667 67° East 530 610 33,000  Level Moncton Center
09:25PM 48.1500 -62.3667 69° East 530 610 33,000  Level Moncton Center
09:26PM 48.2000 -62.1667 69° East 530 610 33,000  Level Moncton Center
09:27PM 48.2667 -61.9333 67° East 530 610 33,000  Level Moncton Center
09:28PM 48.3000 -61.7500 75° East 530 610 33,000  Level Moncton Center
09:29PM 48.3500 -61.5500 69° East 520 598 33,000  Level Moncton Center
09:30PM 48.4000 -61.3167 72° East 520 598 33,000  Level Moncton Center
09:31PM 48.4333 -61.1333 75° East 520 598 33,000  Level Moncton Center
09:32PM 48.5000 -60.9333 63° Northeast 520 598 33,000  Level Gander Center
09:33PM 48.5500 -60.7000 72° East 520 598 33,000  Level Moncton Center
09:34PM 48.5833 -60.5000 76° East 520 598 33,000  Level Moncton Center
09:35PM 48.6500 -60.2833 65° Northeast 520 598 33,000  Level Moncton Center
09:36PM 48.6833 -60.0833 76° East 530 610 33,000  Level Moncton Center
09:37PM 48.7333 -59.8833 69° East 530 610 33,000  Level Moncton Center
09:38PM 48.7833 -59.6667 71° East 530 610 33,000  Level Moncton Center
09:39PM 48.8333 -59.4667 69° East 520 598 33,000  Level Moncton Center
09:40PM 48.8667 -59.2500 77° East 530 610 33,000  Level Moncton Center
09:41PM 48.9167 -59.0500 69° East 530 610 33,000  Level Moncton Center
09:42PM 48.9667 -58.8000 73° East 530 610 33,000  Level Moncton Center
09:43PM 49.0167 -58.6000 69° East 530 610 33,000  Level Moncton Center
09:44PM 49.0500 -58.3833 77° East 530 610 33,000  Level Moncton Center
09:45PM 49.1000 -58.1833 69° East 530 610 33,000  Level Moncton Center
09:46PM 49.1500 -57.9667 70° East 530 610 33,000  Level Moncton Center
09:47PM 49.2000 -57.7333 72° East 540 621 33,000  Level Moncton Center
09:48PM 49.2667 -57.5333 63° Northeast 540 621 33,000  Level Gander Center
09:49PM 49.3333 -57.3000 66° East 540 621 33,000  Level Gander Center
09:50PM 49.3667 -57.1000 76° East 540 621 33,000  Level Gander Center
09:51PM 49.4333 -56.9167 61° Northeast 540 621 33,000  Level Gander Center
09:52PM 49.4833 -56.6667 73° East 540 621 33,000  Level Gander Center
09:53PM 49.5500 -56.4667 63° Northeast 550 633 33,000  Level Moncton Center
09:59PM 49.8660 -55.2820 63° Northeast 551 634 33,000  Level FlightAware
09:59PM 49.8980 -55.1530 69° East 550 633 33,000  Level FlightAware
10:00PM 49.9290 -55.0280 69° East 550 633 33,000  Level FlightAware
10:01PM 49.9930 -54.7550 70° East 551 634 33,000  Level FlightAware
10:01PM 50.0180 -54.6490 70° East 547 629 33,000  Level FlightAware
10:02PM 50.0540 -54.4950 70° East 547 629 33,000  Level FlightAware
10:03PM 50.0900 -54.3380 70° East 547 629 33,000  Level FlightAware
10:04PM 50.1500 -54.0810 70° East 549 632 33,000  Level FlightAware
10:05PM 50.1840 -53.9340 70° East 550 633 33,000  Level FlightAware
10:05PM 50.2220 -53.7670 70° East 550 633 33,000  Level FlightAware
10:06PM 50.2570 -53.6120 70° East 551 634 33,000  Level FlightAware
10:07PM 50.2950 -53.4420 71° East 552 635 33,000  Level FlightAware
10:07PM 50.3280 -53.2920 71° East 555 639 33,000  Level FlightAware
10:08PM 50.3570 -53.1610 71° East 557 641 33,000  Level FlightAware
10:09PM 50.3970 -52.9790 71° East 557 641 33,000  Level FlightAware
10:10PM 50.4250 -52.8490 71° East 557 641 33,000  Level FlightAware
10:12PM 50.5440 -52.2930 71° East 33,000  Level FlightAware
10:13PM 50.5840 -52.1040 72° East 561 646 33,000  Level FlightAware
10:13PM 50.6120 -51.9660 72° East 561 646 33,000  Level FlightAware
10:14PM 50.6450 -51.8150 71° East 561 646 33,000  Level FlightAware
10:15PM 50.6740 -51.6830 71° East 561 646 33,000  Level FlightAware
10:15PM 50.7030 -51.5520 71° East 561 646 33,000  Level FlightAware
10:16PM 50.7390 -51.3870 71° East 561 646 33,000  Level FlightAware
10:17PM 50.7670 -51.2550 71° East 561 646 33,000  Level FlightAware
10:17PM 50.7960 -51.1230 71° East 561 646 33,000  Level FlightAware
10:18PM 50.8250 -50.9910 71° East 561 646 33,000  Level FlightAware
10:19PM 50.8530 -50.8590 71° East 561 646 33,000  Level FlightAware
10:20PM 50.8890 -50.6930 71° East 561 646 33,000  Level FlightAware
10:20PM 50.9180 -50.5610 71° East 561 646 33,000  Level FlightAware
10:21PM 50.9470 -50.4290 71° East 561 646 33,000  Level FlightAware
10:22PM 50.9750 -50.2960 71° East 561 646 33,000  Level FlightAware
10:22PM 51.0040 -50.1640 71° East 561 646 33,000  Level FlightAware
10:23PM 51.0400 -49.9980 71° East 561 646 33,000  Level FlightAware
10:24PM 51.1667 -49.2167 71° East 590 679 33,000  Level Gander Center
10:26PM 51.2424 -48.9470 66° East  Level FlightAware Approximate
10:33PM 51.5920 -47.4702 70° East  Level FlightAware Approximate
10:34PM 51.6395 -47.2570 70° East  Level FlightAware Approximate
10:35PM 51.6866 -47.0433 70° East  Level FlightAware Approximate
10:36PM 51.7332 -46.8292 71° East  Level FlightAware Approximate
10:37PM 51.7795 -46.6146 71° East  Level FlightAware Approximate
10:38PM 51.8254 -46.3996 71° East  Level FlightAware Approximate
10:39PM 51.8709 -46.1842 71° East  Level FlightAware Approximate
10:40PM 51.9161 -45.9683 71° East  Level FlightAware Approximate
10:41PM 51.9608 -45.7520 71° East  Level FlightAware Approximate
10:42PM 52.0051 -45.5353 72° East  Level FlightAware Approximate
10:43PM 52.0490 -45.3181 72° East  Level FlightAware Approximate
10:44PM 52.0925 -45.1005 72° East  Level FlightAware Approximate
10:45PM 52.1357 -44.8825 72° East  Level FlightAware Approximate
10:46PM 52.1784 -44.6641 72° East  Level FlightAware Approximate
10:47PM 52.2207 -44.4453 72° East  Level FlightAware Approximate
10:48PM 52.2626 -44.2260 73° East  Level FlightAware Approximate
10:49PM 52.3041 -44.0063 73° East  Level FlightAware Approximate
10:50PM 52.3455 -43.7864 73° East  Level FlightAware Approximate
10:51PM 52.3874 -43.5665 73° East  Level FlightAware Approximate
10:52PM 52.4289 -43.3462 73° East  Level FlightAware Approximate
10:53PM 52.4699 -43.1255 73° East  Level FlightAware Approximate
10:54PM 52.5106 -42.9044 73° East  Level FlightAware Approximate
10:55PM 52.5508 -42.6828 73° East  Level FlightAware Approximate
10:56PM 52.5906 -42.4609 73° East  Level FlightAware Approximate
10:57PM 52.6300 -42.2385 74° East  Level FlightAware Approximate
10:58PM 52.6690 -42.0158 74° East  Level FlightAware Approximate
10:59PM 52.7076 -41.7926 74° East  Level FlightAware Approximate
11:00PM 52.7458 -41.5691 74° East  Level FlightAware Approximate
11:01PM 52.7835 -41.3452 74° East  Level FlightAware Approximate
11:02PM 52.8208 -41.1209 75° East  Level FlightAware Approximate
11:03PM 52.8577 -40.8962 75° East  Level FlightAware Approximate
11:04PM 52.8941 -40.6711 75° East  Level FlightAware Approximate
11:05PM 52.9302 -40.4457 75° East  Level FlightAware Approximate
11:06PM 52.9658 -40.2198 75° East  Level FlightAware Approximate
11:07PM 53.0009 -39.9936 77° East  Level FlightAware Approximate
11:08PM 53.0332 -39.7661 77° East  Level FlightAware Approximate
11:09PM 53.0651 -39.5382 77° East  Level FlightAware Approximate
11:10PM 53.0965 -39.3100 77° East  Level FlightAware Approximate
11:11PM 53.1275 -39.0814 77° East  Level FlightAware Approximate
11:12PM 53.1581 -38.8525 77° East  Level FlightAware Approximate
11:13PM 53.1882 -38.6233 78° East  Level FlightAware Approximate
11:14PM 53.2179 -38.3938 78° East  Level FlightAware Approximate
11:15PM 53.2472 -38.1639 78° East  Level FlightAware Approximate
11:16PM 53.2760 -37.9338 78° East  Level FlightAware Approximate
11:17PM 53.3043 -37.7033 78° East  Level FlightAware Approximate
11:18PM 53.3322 -37.4726 78° East  Level FlightAware Approximate
11:19PM 53.3597 -37.2415 79° East  Level FlightAware Approximate
11:20PM 53.3867 -37.0101 79° East  Level FlightAware Approximate
11:21PM 53.4133 -36.7785 79° East  Level FlightAware Approximate
11:22PM 53.4394 -36.5466 79° East  Level FlightAware Approximate
11:23PM 53.4651 -36.3143 79° East  Level FlightAware Approximate
11:24PM 53.4907 -36.0819 79° East  Level FlightAware Approximate
11:25PM 53.5158 -35.8493 80° East  Level FlightAware Approximate
11:26PM 53.5405 -35.6163 80° East  Level FlightAware Approximate
11:27PM 53.5648 -35.3831 80° East  Level FlightAware Approximate
11:28PM 53.5885 -35.1497 80° East  Level FlightAware Approximate
11:29PM 53.6119 -34.9159 80° East  Level FlightAware Approximate
11:30PM 53.6348 -34.6819 81° East  Level FlightAware Approximate
11:31PM 53.6572 -34.4477 81° East  Level FlightAware Approximate
11:32PM 53.6791 -34.2132 81° East  Level FlightAware Approximate
11:33PM 53.7006 -33.9785 81° East  Level FlightAware Approximate
11:34PM 53.7218 -33.7435 81° East  Level FlightAware Approximate
11:35PM 53.7428 -33.5084 81° East  Level FlightAware Approximate
11:36PM 53.7634 -33.2731 81° East  Level FlightAware Approximate
11:37PM 53.7835 -33.0376 82° East  Level FlightAware Approximate
11:38PM 53.8031 -32.8018 82° East  Level FlightAware Approximate
11:39PM 53.8223 -32.5658 82° East  Level FlightAware Approximate
11:40PM 53.8410 -32.3296 82° East  Level FlightAware Approximate
11:41PM 53.8593 -32.0932 82° East  Level FlightAware Approximate
11:42PM 53.8770 -31.8566 83° East  Level FlightAware Approximate
11:43PM 53.8944 -31.6197 83° East  Level FlightAware Approximate
11:44PM 53.9112 -31.3827 83° East  Level FlightAware Approximate
11:45PM 53.9276 -31.1455 83° East  Level FlightAware Approximate
11:46PM 53.9435 -30.9082 83° East  Level FlightAware Approximate
11:47PM 53.9590 -30.6706 84° East  Level FlightAware Approximate
11:48PM 53.9740 -30.4329 84° East  Level FlightAware Approximate
11:49PM 53.9885 -30.1950 84° East  Level FlightAware Approximate
11:50PM 54.0060 -29.9579 76° East  Level FlightAware Approximate
11:51PM 54.0390 -29.7251 76° East  Level FlightAware Approximate
11:52PM 54.0715 -29.4920 77° East  Level FlightAware Approximate
11:53PM 54.1035 -29.2586 77° East  Level FlightAware Approximate
11:54PM 54.1352 -29.0247 77° East  Level FlightAware Approximate
11:55PM 54.1663 -28.7905 77° East  Level FlightAware Approximate
11:56PM 54.1970 -28.5560 77° East  Level FlightAware Approximate
11:57PM 54.2272 -28.3211 77° East  Level FlightAware Approximate
11:58PM 54.2570 -28.0859 78° East  Level FlightAware Approximate
11:59PM 54.2864 -27.8503 78° East  Level FlightAware Approximate
12:00AM 54.3152 -27.6144 78° East  Level FlightAware Approximate
12:01AM 54.3436 -27.3782 78° East  Level FlightAware Approximate
12:02AM 54.3713 -27.1415 79° East  Level FlightAware Approximate
12:03AM 54.3976 -26.9043 79° East  Level FlightAware Approximate
12:04AM 54.4234 -26.6667 79° East  Level FlightAware Approximate
12:05AM 54.4488 -26.4288 80° East  Level FlightAware Approximate
12:06AM 54.4736 -26.1907 80° East  Level FlightAware Approximate
12:07AM 54.4980 -25.9522 80° East  Level FlightAware Approximate
12:08AM 54.5224 -25.7136 79° East  Level FlightAware Approximate
12:09AM 54.5480 -25.4752 79° East  Level FlightAware Approximate
12:10AM 54.5731 -25.2366 80° East  Level FlightAware Approximate
12:11AM 54.5977 -24.9976 80° East  Level FlightAware Approximate
12:12AM 54.6219 -24.7584 80° East  Level FlightAware Approximate
12:13AM 54.6456 -24.5188 80° East  Level FlightAware Approximate
12:14AM 54.6688 -24.2790 80° East  Level FlightAware Approximate
12:15AM 54.6915 -24.0389 81° East  Level FlightAware Approximate
12:16AM 54.7138 -23.7986 81° East  Level FlightAware Approximate
12:17AM 54.7355 -23.5580 81° East  Level FlightAware Approximate
12:18AM 54.7569 -23.3171 81° East  Level FlightAware Approximate
12:19AM 54.7777 -23.0760 81° East  Level FlightAware Approximate
12:20AM 54.7980 -22.8346 82° East  Level FlightAware Approximate
12:21AM 54.8179 -22.5930 82° East  Level FlightAware Approximate
12:22AM 54.8373 -22.3512 82° East  Level FlightAware Approximate
12:23AM 54.8562 -22.1091 82° East  Level FlightAware Approximate
12:24AM 54.8746 -21.8669 82° East  Level FlightAware Approximate
12:25AM 54.8926 -21.6243 83° East  Level FlightAware Approximate
12:26AM 54.9100 -21.3816 83° East  Level FlightAware Approximate
12:27AM 54.9270 -21.1387 83° East  Level FlightAware Approximate
12:28AM 54.9435 -20.8956 83° East  Level FlightAware Approximate
12:29AM 54.9595 -20.6522 83° East  Level FlightAware Approximate
12:30AM 54.9751 -20.4087 84° East  Level FlightAware Approximate
12:31AM 54.9901 -20.1650 84° East  Level FlightAware Approximate
12:32AM 54.9955 -19.9211 96° East  Level FlightAware Approximate
12:33AM 54.9812 -19.6772 96° East  Level FlightAware Approximate
12:34AM 54.9664 -19.4335 96° East  Level FlightAware Approximate
12:35AM 54.9511 -19.1900 96° East  Level FlightAware Approximate
12:36AM 54.9354 -18.9467 96° East  Level FlightAware Approximate
12:37AM 54.9191 -18.7036 97° East  Level FlightAware Approximate
12:38AM 54.9024 -18.4606 97° East  Level FlightAware Approximate
12:39AM 54.8852 -18.2179 97° East  Level FlightAware Approximate
12:40AM 54.8675 -17.9759 97° East  Level FlightAware Approximate
12:41AM 54.8494 -17.7342 97° East  Level FlightAware Approximate
12:42AM 54.8308 -17.4927 98° East  Level FlightAware Approximate
12:43AM 54.8117 -17.2514 98° East  Level FlightAware Approximate
12:44AM 54.7921 -17.0103 98° East  Level FlightAware Approximate
12:44AM 54.9710 -13.3680 98° East 519 597 33,000  Level FlightAware
12:44AM 54.9700 -13.2000 91° East 519 597 33,000 720 Level FlightAware
12:45AM 54.7721 -16.7695 98° East  Level FlightAware Approximate
12:45AM 54.9650 -12.9880 92° East 517 595 34,100  Level FlightAware
12:46AM 54.9620 -12.8260 92° East 521 600 34,900 1,260 Climbing FlightAware
12:47AM 54.9580 -12.6340 92° East 522 601 35,900 1,080 Climbing FlightAware
12:47AM 54.9550 -12.4710 92° East 523 602 36,500 780 Climbing FlightAware
12:48AM 54.9520 -12.3130 92° East 528 608 37,000 300 Climbing FlightAware
12:49AM 54.9460 -12.0690 92° East 532 612 37,000  Level FlightAware
12:50AM 54.9410 -11.8700 92° East 527 606 37,000  Level FlightAware
12:50AM 54.9360 -11.7030 93° East 523 602 37,000  Level FlightAware
12:51AM 54.9310 -11.5090 92° East 518 596 37,000  Level FlightAware
12:52AM 54.9260 -11.3440 93° East 515 593 37,000  Level FlightAware
12:52AM 54.9200 -11.1580 93° East 513 590 37,000  Level FlightAware
12:53AM 54.9150 -10.9940 93° East 512 589 37,000  Level FlightAware
12:54AM 54.9090 -10.8300 94° East 514 592 37,000  Level FlightAware
12:55AM 54.9030 -10.6450 93° East 517 595 37,000  Level FlightAware
12:55AM 54.8960 -10.4780 94° East 518 596 37,000  Level FlightAware
12:56AM 54.8890 -10.3450 95° East 523 602 37,000  Level FlightAware
12:57AM 54.8680 -10.1310 100° East 528 608 37,000  Level FlightAware
12:57AM 54.8500 -9.9720 101° East 529 609 37,000  Level FlightAware
12:58AM 54.8270 -9.7750 101° East 531 611 37,000  Level FlightAware
12:59AM 54.8070 -9.6040 101° East 532 612 37,000  Level FlightAware
12:59AM 54.7850 -9.4190 102° East 535 616 37,000  Level FlightAware
01:00AM 54.7650 -9.2530 102° East 535 616 37,000  Level FlightAware
01:01AM 54.7430 -9.0840 103° East 536 617 37,000 -1,500 Level FlightAware
01:01AM 54.7314 -8.9873 103° East 450 518 35,500 -2,340 Descending FlightAware UK
01:01AM 54.7219 -8.9121 102° East 448 516 35,500 3,720 Level FlightAware UK
01:02AM 54.7200 -8.8960 102° East 536 617 37,000  Climbing FlightAware
01:02AM 54.7091 -8.8120 102° East 448 516 35,500  Descending FlightAware UK
01:02AM 54.6980 -8.7270 103° East 534 615 37,000  Climbing FlightAware
01:02AM 54.6960 -8.7119 103° East 450 518 35,500 -4,500 Descending FlightAware UK
01:03AM 54.6865 -8.6368 103° East 450 518 35,500  Level FlightAware UK
01:03AM 54.6767 -8.5612 103° East 450 518 35,500 3,600 Level FlightAware UK
01:03AM 54.6740 -8.5430 103° East 534 615 37,000  Climbing FlightAware
01:03AM 54.6636 -8.4616 103° East 452 520 35,500 -2,580 Descending FlightAware UK
01:04AM 54.6538 -8.3872 103° East 452 520 35,500 3,900 Level FlightAware UK
01:04AM 54.6520 -8.3750 103° East 531 611 37,000  Climbing FlightAware
01:04AM 54.6406 -8.2878 103° East 452 520 35,500 -2,460 Descending FlightAware UK
01:04AM 54.6307 -8.2134 103° East 450 518 35,500 4,260 Level FlightAware UK
01:04AM 54.6300 -8.2100 103° East 530 610 37,000  Climbing FlightAware
01:05AM 54.6207 -8.1390 103° East 448 516 35,500 -2,940 Descending FlightAware UK
01:05AM 54.6110 -8.0648 103° East 446 513 35,400 3,000 Descending FlightAware UK
01:05AM 54.6060 -8.0310 103° East 528 608 37,000  Climbing FlightAware
01:05AM 54.5943 -7.9420 103° East 444 511 35,400 -2,700 Descending FlightAware UK
01:06AM 54.5843 -7.8688 103° East 444 511 35,400 4,320 Level FlightAware UK
01:06AM 54.5830 -7.8610 103° East 526 605 37,000  Climbing FlightAware
01:06AM 54.5710 -7.7710 103° East 440 506 35,400 -2,580 Descending FlightAware UK
01:06AM 54.5610 -7.6979 103° East 438 504 35,400 4,800 Level FlightAware UK
01:06AM 54.5610 -7.7000 103° East 523 602 37,000  Climbing FlightAware
01:07AM 54.5510 -7.6249 103° East 436 502 35,400 -2,880 Descending FlightAware UK
01:07AM 54.5408 -7.5521 104° East 436 502 35,400 3,300 Level FlightAware UK
01:07AM 54.5360 -7.5200 104° East 521 600 37,000  Climbing FlightAware
01:07AM 54.5241 -7.4310 104° East 436 502 35,400 -2,640 Descending FlightAware UK
01:08AM 54.5139 -7.3585 104° East 438 504 35,400 4,560 Level FlightAware UK
01:08AM 54.5130 -7.3550 104° East 520 598 37,000 300 Climbing FlightAware
01:08AM 54.5035 -7.2853 104° East 438 504 35,500 -2,340 Descending FlightAware UK
01:08AM 54.4898 -7.1887 104° East 438 504 35,500 3,000 Level FlightAware UK
01:09AM 54.4880 -7.1770 104° East 521 600 37,000  Climbing FlightAware
01:09AM 54.4760 -7.0921 104° East 436 502 35,500 -2,520 Descending FlightAware UK
01:09AM 54.4657 -7.0198 104° East 438 504 35,500 4,080 Level FlightAware UK
01:09AM 54.4650 -7.0140 104° East 520 598 37,000  Climbing FlightAware
01:10AM 54.4520 -6.9234 104° East 438 504 35,500 -2,400 Descending FlightAware UK
01:10AM 54.4413 -6.8510 104° East 438 504 35,500 3,600 Level FlightAware UK
01:10AM 54.4390 -6.8360 104° East 523 602 37,000  Climbing FlightAware
01:10AM 54.4272 -6.7547 104° East 438 504 35,500 -2,580 Descending FlightAware UK
01:11AM 54.4164 -6.6824 104° East 436 502 35,500 4,980 Level FlightAware UK
01:11AM 54.4180 -6.6910 104° East 523 602 37,000 -360 Climbing FlightAware
01:11AM 54.4057 -6.6100 104° East 438 504 35,400 -2,520 Descending FlightAware UK
01:11AM 54.3949 -6.5369 104° East 438 504 35,500 3,000 Climbing FlightAware UK
01:11AM 54.3880 -6.4900 104° East 524 603 37,000  Climbing FlightAware
01:12AM 54.3770 -6.4162 104° East 440 506 35,500 -2,700 Descending FlightAware UK
01:12AM 54.3661 -6.3440 104° East 442 509 35,500 3,720 Level FlightAware UK
01:12AM 54.3640 -6.3330 104° East 525 604 37,000  Climbing FlightAware
01:12AM 54.3515 -6.2475 104° East 442 509 35,500 -2,520 Descending FlightAware UK
01:13AM 54.3407 -6.1750 104° East 442 509 35,500 4,080 Level FlightAware UK
01:13AM 54.3400 -6.1700 104° East 526 605 37,000  Climbing FlightAware
01:13AM 54.3261 -6.0786 104° East 442 509 35,500 -2,400 Descending FlightAware UK
01:13AM 54.3152 -6.0060 104° East 444 511 35,500 3,600 Level FlightAware UK
01:13AM 54.3130 -5.9890 104° East 528 608 37,000  Climbing FlightAware
01:14AM 54.3003 -5.9092 104° East 444 511 35,500 -2,580 Descending FlightAware UK
01:14AM 54.2891 -5.8367 105° East 444 511 35,500 3,900 Level FlightAware UK
01:14AM 54.2870 -5.8260 105° East 526 605 37,000  Climbing FlightAware
01:14AM 54.2741 -5.7400 105° East 446 513 35,500  Descending FlightAware UK
01:15AM 54.2670 -5.6950 105° East 526 605 37,000  Climbing FlightAware
01:15AM 54.2629 -5.6674 105° East 448 516 35,500 -4,500 Descending FlightAware UK
01:15AM 54.2516 -5.5951 105° East 448 516 35,500  Level FlightAware UK
01:15AM 54.2403 -5.5228 105° East 448 516 35,500  Level FlightAware UK
01:16AM 54.2290 -5.4496 105° East 448 516 35,500  Level FlightAware UK
01:16AM 54.2177 -5.3780 105° East 448 516 35,500  Level FlightAware UK
01:16AM 54.2059 -5.3050 105° East 448 516 35,500  Level FlightAware UK
01:17AM 54.1945 -5.2335 105° East 448 516 35,500 3,180 Level FlightAware UK
01:17AM 54.1930 -5.2230 105° East 527 606 37,000 -240 Climbing FlightAware
01:17AM 54.1752 -5.1128 105° East 446 513 35,400 -2,580 Descending FlightAware UK
01:17AM 54.1636 -5.0406 105° East 446 513 35,400 4,800 Level FlightAware UK
01:17AM 54.1640 -5.0440 105° East 529 609 37,000  Climbing FlightAware
01:18AM 54.1515 -4.9678 105° East 446 513 35,400 -2,880 Descending FlightAware UK
01:18AM 54.1395 -4.8958 106° East 446 513 35,400 3,300 Level FlightAware UK
01:18AM 54.1330 -4.8590 106° East 528 608 37,000 180 Climbing FlightAware
01:18AM 54.1192 -4.7761 106° East 448 516 35,500 -2,460 Descending FlightAware UK
01:19AM 54.1070 -4.7044 106° East 446 513 35,500 4,260 Level FlightAware UK
01:19AM 54.1060 -4.6980 106° East 527 606 37,000  Climbing FlightAware
01:19AM 54.0948 -4.6328 106° East 446 513 35,500 -2,760 Descending FlightAware UK
01:19AM 54.0826 -4.5612 106° East 444 511 35,500 3,600 Level FlightAware UK
01:19AM 54.0790 -4.5410 106° East 526 605 37,000  Climbing FlightAware
01:20AM 54.0664 -4.4659 106° East 440 506 35,500 -2,580 Descending FlightAware UK
01:20AM 54.0542 -4.3947 106° East 438 504 35,500 3,180 Level FlightAware UK
01:20AM 54.0490 -4.3670 106° East 524 603 37,000  Climbing FlightAware
01:20AM 54.0378 -4.2992 106° East 438 504 35,500 -2,760 Descending FlightAware UK
01:21AM 54.0255 -4.2284 107° East 440 506 35,500 3,600 Level FlightAware UK
01:21AM 54.0220 -4.2100 107° East 524 603 37,000  Climbing FlightAware
01:21AM 54.0090 -4.1340 107° East 438 504 35,500 -2,580 Descending FlightAware UK
01:21AM 53.9966 -4.0633 107° East 436 502 35,500 3,180 Level FlightAware UK
01:22AM 53.9900 -4.0280 107° East 522 601 37,000  Climbing FlightAware
01:22AM 53.9762 -3.9463 107° East 436 502 35,500 -2,400 Descending FlightAware UK
01:22AM 53.9635 -3.8749 107° East 438 504 35,500 4,260 Level FlightAware UK
01:22AM 53.9620 -3.8700 107° East 524 603 37,000  Climbing FlightAware
01:23AM 53.9509 -3.8043 107° East 438 504 35,500 -2,700 Descending FlightAware UK
01:23AM 53.9382 -3.7337 107° East 440 506 35,500 3,720 Level FlightAware UK
01:23AM 53.9350 -3.7150 107° East 524 603 37,000  Climbing FlightAware
01:23AM 53.9215 -3.6394 107° East 440 506 35,500 -2,520 Descending FlightAware UK
01:24AM 53.9086 -3.5688 107° East 444 511 35,500 3,300 Level FlightAware UK
01:24AM 53.9040 -3.5430 107° East 527 606 37,000  Climbing FlightAware
01:24AM 53.8917 -3.4743 107° East 444 511 35,500 -2,760 Descending FlightAware UK
01:24AM 53.8787 -3.4034 107° East 444 511 35,500 3,600 Level FlightAware UK
01:24AM 53.8750 -3.3830 107° East 527 606 37,000 -300 Climbing FlightAware
01:25AM 53.8614 -3.3090 107° East 444 511 35,400 -2,760 Descending FlightAware UK
01:25AM 53.8484 -3.2383 107° East 442 509 35,400 3,420 Level FlightAware UK
01:25AM 53.8420 -3.2030 107° East 525 604 37,000  Climbing FlightAware
01:25AM 53.8268 -3.1208 107° East 442 509 35,400  Descending FlightAware UK
01:26AM 53.8201 -3.0846 107° East 526 605 37,000 240 Climbing FlightAware ADS-B
01:26AM 53.8092 -3.0262 107° East 444 511 35,500 -2,760 Descending FlightAware UK
01:26AM 53.7962 -2.9556 107° East 446 513 35,500 2,700 Level FlightAware UK
01:26AM 53.7849 -2.8950 107° East 527 606 37,000  Climbing FlightAware ADS-B
01:27AM 53.7741 -2.8373 107° East 446 513 35,500  Descending FlightAware UK
01:27AM 53.7611 -2.7682 107° East 527 606 37,000  Climbing FlightAware ADS-B
01:27AM 53.7477 -2.6964 107° East 446 513 35,500  Descending FlightAware UK
01:27AM 53.7390 -2.6507 107° East 527 606 37,000  Climbing FlightAware ADS-B
01:28AM 53.7209 -2.5551 107° East 446 513 35,500 -2,160 Descending FlightAware UK
01:28AM 53.7077 -2.4858 108° East 448 516 35,500 2,280 Level FlightAware UK
01:28AM 53.6918 -2.4033 108° East 526 605 37,000  Climbing FlightAware ADS-B
01:29AM 53.6808 -2.3450 108° East 450 518 35,500  Descending FlightAware UK
01:29AM 53.6682 -2.2809 108° East 526 605 37,000 -180 Climbing FlightAware ADS-B
01:29AM 53.6536 -2.2053 108° East 452 520 35,400  Descending FlightAware UK
01:30AM 53.6456 -2.1640 108° East 526 605 37,000  Climbing FlightAware ADS-B
01:30AM 53.6309 -2.0890 108° East 450 518 35,400  Descending FlightAware UK
01:30AM 53.6250 -2.0590 108° East 524 603 37,000 5,640 Climbing FlightAware
01:30AM 53.6187 -2.0267 108° East 524 603 37,000 -3,600 Level FlightAware ADS-B
01:30AM 53.6037 -1.9490 108° East 452 520 35,500  Descending FlightAware UK
01:31AM 53.5959 -1.9105 108° East 525 604 37,000  Climbing FlightAware ADS-B
01:31AM 53.5809 -1.8342 108° East 452 520 35,500  Descending FlightAware UK
01:31AM 53.5726 -1.7927 108° East 522 601 37,000 -240 Climbing FlightAware ADS-B
01:31AM 53.5578 -1.7175 108° East 450 518 35,400  Descending FlightAware UK
01:32AM 53.5490 -1.6738 108° East 520 598 37,000  Climbing FlightAware ADS-B
01:32AM 53.5304 -1.5802 108° East 448 516 35,400 -2,100 Descending FlightAware UK
01:32AM 53.5165 -1.5111 109° East 446 513 35,500  Climbing FlightAware UK
01:33AM 53.5028 -1.4430 109° East 444 511 35,400 3,420 Descending FlightAware UK
01:33AM 53.4964 -1.4117 109° East 515 593 37,000  Climbing FlightAware ADS-B
01:33AM 53.4847 -1.3535 109° East 442 509 35,400  Descending FlightAware UK
01:33AM 53.4725 -1.2932 109° East 512 589 37,000 2,040 Climbing FlightAware ADS-B
01:34AM 53.4494 -1.1798 109° East 510 587 37,000  Level FlightAware ADS-B
01:34AM 53.4258 -1.0648 109° East 509 586 37,000 -1,920 Level FlightAware ADS-B
01:35AM 53.4114 -0.9946 109° East 436 502 35,400  Descending FlightAware UK
01:35AM 53.4040 -0.9600 109° East 506 582 37,000  Climbing FlightAware
01:35AM 53.3883 -0.8830 109° East 436 502 35,400 -2,700 Descending FlightAware UK
01:35AM 53.3745 -0.8167 109° East 436 502 35,400 3,540 Level FlightAware UK
01:36AM 53.3690 -0.7920 109° East 506 582 37,000  Climbing FlightAware
01:36AM 53.3561 -0.7282 109° East 436 502 35,400  Descending FlightAware UK
01:36AM 53.3500 -0.6994 109° East 506 582 37,000  Climbing FlightAware ADS-B
01:36AM 53.3329 -0.6178 109° East 436 502 35,400  Descending FlightAware UK
01:37AM 53.3199 -0.5565 109° East 505 581 37,000  Climbing FlightAware ADS-B
01:37AM 53.3049 -0.4858 109° East 436 502 35,400  Descending FlightAware UK
01:37AM 53.2963 -0.4447 109° East 504 580 37,000 180 Climbing FlightAware ADS-B
01:37AM 53.2817 -0.3760 109° East 438 504 35,500  Descending FlightAware UK
01:38AM 53.2709 -0.3259 109° East 504 580 37,000  Climbing FlightAware ADS-B
01:38AM 53.2576 -0.2660 109° East 442 509 35,500  Descending FlightAware UK
01:38AM 53.2429 -0.2151 109° East 511 588 37,000  Climbing FlightAware ADS-B
01:38AM 53.2275 -0.1579 109° East 440 506 35,500  Descending FlightAware UK
01:39AM 53.2133 -0.1058 109° East 512 589 37,000  Climbing FlightAware ADS-B
01:39AM 53.1982 -0.0506 109° East 440 506 35,500  Descending FlightAware UK
01:39AM 53.1840 0.0018 109° East 511 588 37,000  Climbing FlightAware ADS-B
01:39AM 53.1692 0.0557 109° East 442 509 35,500  Descending FlightAware UK
01:40AM 53.1525 0.1167 109° East 510 587 37,000  Climbing FlightAware ADS-B
01:40AM 53.1337 0.1848 109° East 446 513 35,500  Descending FlightAware UK
01:40AM 53.1228 0.2247 109° East 511 588 37,000  Climbing FlightAware ADS-B
01:41AM 53.1040 0.2923 109° East 446 513 35,500  Descending FlightAware UK
01:41AM 53.0968 0.3256 109° East 498 573 37,000 4,980 Climbing FlightAware ADS-B
01:41AM 53.0926 0.3573 102° East 484 557 37,000  Level FlightAware ADS-B
01:41AM 53.0841 0.4422 99° East 480 552 37,000  Level FlightAware ADS-B
01:42AM 53.0776 0.5009 100° East 481 554 37,000 -2,940 Level FlightAware ADS-B
01:42AM 53.0716 0.5544 100° East 444 511 35,500  Descending FlightAware UK
01:42AM 53.0637 0.6127 100° East 485 558 37,000  Climbing FlightAware ADS-B
01:42AM 53.0539 0.6857 100° East 448 516 35,500  Descending FlightAware UK
01:43AM 53.0484 0.7244 100° East 486 559 37,000  Climbing FlightAware ADS-B
01:43AM 53.0385 0.7951 100° East 452 520 35,500  Descending FlightAware UK
01:43AM 53.0321 0.8396 100° East 486 559 37,000 2,040 Climbing FlightAware ADS-B
01:44AM 53.0160 0.9503 104° East 487 560 37,000 -2,100 Level FlightAware ADS-B
01:44AM 53.0071 1.0115 104° East 452 520 35,400  Descending FlightAware UK
01:44AM 53.0012 1.0525 104° East 484 557 37,000  Climbing FlightAware ADS-B
01:44AM 52.9925 1.1195 104° East 450 518 35,400  Descending FlightAware UK
01:45AM 52.9871 1.1626 104° East 480 552 37,000  Climbing FlightAware ADS-B
01:45AM 52.9788 1.2268 104° East 446 513 35,400  Descending FlightAware UK
01:45AM 52.9730 1.2740 104° East 479 551 37,000  Climbing FlightAware ADS-B
01:45AM 52.9653 1.3352 104° East 448 516 35,400  Descending FlightAware UK
01:46AM 52.9588 1.3837 104° East 480 552 37,000 180 Climbing FlightAware ADS-B
01:46AM 52.9511 1.4439 104° East 450 518 35,500  Descending FlightAware UK
01:46AM 52.9443 1.4932 104° East 479 551 37,000  Climbing FlightAware ADS-B
01:46AM 52.9371 1.5502 104° East 446 513 35,500  Descending FlightAware UK
01:47AM 52.9249 1.6366 104° East 480 552 37,000  Climbing FlightAware ADS-B
01:47AM 52.9159 1.7010 104° East 446 513 35,500  Descending FlightAware UK
01:47AM 52.9083 1.7584 104° East 480 552 37,000  Climbing FlightAware ADS-B
01:48AM 52.8984 1.8298 104° East 448 516 35,500  Descending FlightAware UK
01:48AM 52.8933 1.8675 104° East 480 552 37,000  Climbing FlightAware ADS-B
01:48AM 52.8836 1.9368 104° East 446 513 35,500 -2,400 Descending FlightAware UK
01:48AM 52.8748 2.0017 103° East 448 516 35,500 2,880 Level FlightAware UK
01:49AM 52.8720 2.0210 103° East 479 551 37,000  Climbing FlightAware
01:49AM 52.8598 2.1092 103° East 448 516 35,500  Descending FlightAware UK
01:49AM 52.8520 2.1690 103° East 478 550 37,000 -180 Climbing FlightAware
01:50AM 52.8389 2.2584 103° East 448 516 35,400  Descending FlightAware UK
01:50AM 52.8300 2.3230 103° East 477 549 37,000  Climbing FlightAware
01:50AM 52.8209 2.3867 103° East 448 516 35,400 -2,880 Descending FlightAware UK
01:51AM 52.8055 2.4492 112° Southeast 446 513 35,400 3,300 Level FlightAware UK
01:51AM 52.7980 2.4770 112° Southeast 493 567 37,000  Climbing FlightAware
01:51AM 52.7775 2.5522 112° Southeast 446 513 35,400  Descending FlightAware UK
01:51AM 52.7610 2.6120 112° Southeast 491 565 37,000 120 Climbing FlightAware
01:52AM 52.7440 2.6749 112° Southeast 446 513 35,500 -2,760 Descending FlightAware UK
01:52AM 52.7277 2.7365 114° Southeast 446 513 35,500 3,600 Level FlightAware UK
01:52AM 52.7250 2.7480 114° Southeast 488 562 37,000  Climbing FlightAware
01:52AM 52.7015 2.8393 114° Southeast 444 511 35,500  Descending FlightAware UK
01:53AM 52.6900 2.8860 114° Southeast 486 559 37,000  Climbing FlightAware
01:53AM 52.6706 2.9630 114° Southeast 444 511 35,500 -2,580 Descending FlightAware UK
01:53AM 52.6466 3.0204 124° Southeast 442 509 35,400 3,420 Descending FlightAware UK
01:54AM 52.6420 3.0340 124° Southeast 498 573 37,000 240 Climbing FlightAware
01:54AM 52.6182 3.0976 124° Southeast 444 511 35,500 -2,580 Descending FlightAware UK
01:54AM 52.5970 3.1564 121° Southeast 446 513 35,500 3,060 Level FlightAware UK
01:54AM 52.5880 3.1830 121° Southeast 495 570 37,000  Climbing FlightAware
01:55AM 52.5621 3.2535 121° Southeast 444 511 35,500  Descending FlightAware UK
01:55AM 52.5400 3.3140 121° Southeast 496 571 37,000  Climbing FlightAware
01:55AM 52.5127 3.3886 121° Southeast 444 511 35,500 -2,280 Descending FlightAware UK
01:56AM 52.4915 3.4470 121° Southeast 444 511 35,500 3,900 Level FlightAware UK
01:56AM 52.4890 3.4560 121° Southeast 493 567 37,000  Climbing FlightAware
01:56AM 52.4636 3.5239 121° Southeast 444 511 35,500  Descending FlightAware UK
01:56AM 52.4430 3.5810 121° Southeast 491 565 37,000  Climbing FlightAware
01:57AM 52.4151 3.6583 121° Southeast 444 511 35,500  Descending FlightAware UK
01:57AM 52.3960 3.7110 121° Southeast 491 565 37,000 1,380 Climbing FlightAware
01:58AM 52.3430 3.8590 120° Southeast 490 564 37,000 -1,320 Level FlightAware
01:58AM 52.3122 3.9457 120° Southeast 444 511 35,500  Descending FlightAware UK
01:58AM 52.3050 3.9670 120° Southeast 490 564 37,000  Climbing FlightAware
01:59AM 52.2717 4.0606 120° Southeast 444 511 35,500  Descending FlightAware UK
01:59AM 52.2530 4.1150 120° Southeast 489 563 37,000 1,380 Climbing FlightAware
02:00AM 52.2040 4.2540 120° Southeast 488 562 37,000 -1,200 Level FlightAware
02:00AM 52.1644 4.3664 120° Southeast 442 509 35,500  Descending FlightAware UK
02:01AM 52.1600 4.3810 120° Southeast 487 560 37,000  Climbing FlightAware
02:01AM 52.1378 4.4428 120° Southeast 440 506 35,500 -2,580 Descending FlightAware UK
02:01AM 52.1181 4.5003 119° Southeast 444 511 35,500 3,180 Level FlightAware UK
02:01AM 52.1090 4.5290 119° Southeast 487 560 37,000  Climbing FlightAware
02:02AM 52.0719 4.6348 119° Southeast 448 516 35,500  Descending FlightAware UK
02:02AM 52.0700 4.6520 119° Southeast 484 557 37,000  Climbing FlightAware
02:02AM 52.0464 4.7115 119° Southeast 446 513 35,500 -2,700 Descending FlightAware UK
02:02AM 52.0341 4.7738 108° East 448 516 35,500 3,060 Level FlightAware UK
02:03AM 52.0290 4.8030 108° East 481 554 37,000 1,740 Climbing FlightAware
02:03AM 51.9940 4.9370 113° Southeast 480 552 37,000 -1,380 Level FlightAware
02:04AM 51.9707 5.0348 113° Southeast 446 513 35,500  Descending FlightAware UK
02:04AM 51.9590 5.0700 113° Southeast 479 551 37,000  Climbing FlightAware
02:04AM 51.9341 5.1732 113° Southeast 446 513 35,500  Descending FlightAware UK
02:05AM 51.9210 5.2140 113° Southeast 479 551 37,000  Climbing FlightAware
02:05AM 51.8960 5.3101 113° Southeast 450 518 35,500  Descending FlightAware UK
02:05AM 51.8870 5.3450 113° Southeast 480 552 37,000  Climbing FlightAware
02:06AM 51.8647 5.4287 113° Southeast 450 518 35,500  Descending FlightAware UK
02:06AM 51.8520 5.4760 113° Southeast 478 550 37,000  Climbing FlightAware
02:06AM 51.8309 5.5450 113° Southeast 450 518 35,500 -2,520 Descending FlightAware UK
02:07AM 51.8154 5.6041 113° Southeast 450 518 35,500 3,300 Level FlightAware UK
02:07AM 51.8130 5.6220 113° Southeast 479 551 37,000  Climbing FlightAware
02:07AM 51.7888 5.7028 113° Southeast 446 513 35,500  Descending FlightAware UK
02:08AM 51.7780 5.7510 113° Southeast 479 551 37,000 1,380 Climbing FlightAware
02:08AM 51.7370 5.9030 113° Southeast 479 551 37,000  Level FlightAware
02:09AM 51.7050 6.0190 114° Southeast 479 551 37,000  Level FlightAware
02:10AM 51.6680 6.1530 114° Southeast 477 549 37,000  Level FlightAware
02:10AM 51.6280 6.2990 114° Southeast 477 549 37,000  Level FlightAware
02:11AM 51.5850 6.4230 119° Southeast 479 551 37,000  Level FlightAware
02:12AM 51.5140 6.5490 132° Southeast 480 552 37,000  Level FlightAware
02:12AM 51.4680 6.6230 135° Southeast 480 552 37,000  Level FlightAware
02:13AM 51.3900 6.7490 135° Southeast 478 550 37,000  Level FlightAware
02:14AM 51.3210 6.8590 135° Southeast 476 548 37,000  Level FlightAware
02:15AM 51.2600 6.9550 135° Southeast 474 545 37,000  Level FlightAware
02:15AM 51.1880 7.0700 135° Southeast 473 544 37,000  Level FlightAware
02:16AM 51.1270 7.1670 135° Southeast 470 541 37,000  Level FlightAware
02:17AM 51.0650 7.2650 135° Southeast 470 541 37,000  Level FlightAware
02:18AM 50.9790 7.3990 136° Southeast 466 536 37,000  Level FlightAware
02:18AM 50.9140 7.5000 136° Southeast 464 534 37,000  Level FlightAware
02:19AM 50.8510 7.5980 135° Southeast 463 533 37,000  Level FlightAware
02:20AM 50.7820 7.7020 136° Southeast 461 531 37,000  Level FlightAware
02:20AM 50.7220 7.7930 136° Southeast 461 531 37,000  Level FlightAware
02:21AM 50.6670 7.8770 136° Southeast 459 528 37,000  Level FlightAware
02:22AM 50.5900 7.9930 136° Southeast 456 525 37,000  Level FlightAware
02:22AM 50.5420 8.0660 136° Southeast 456 525 37,000  Level FlightAware
02:23AM 50.4670 8.1780 136° Southeast 454 522 37,000  Level FlightAware
02:24AM 50.4050 8.2710 136° Southeast 452 520 37,000  Level FlightAware
02:24AM 50.3500 8.3520 137° Southeast 452 520 37,000 -300 Level FlightAware
02:25AM 50.2720 8.4680 136° Southeast 446 513 36,600 -600 Descending FlightAware
02:26AM 50.2180 8.5470 137° Southeast 444 511 36,100 -600 Descending FlightAware
02:27AM 50.1500 8.6470 137° Southeast 432 497 35,800 -660 Descending FlightAware
02:27AM 50.0910 8.7340 137° Southeast 429 494 35,200 -600 Descending FlightAware
02:28AM 50.0280 8.8260 137° Southeast 421 484 35,000 -180 Descending FlightAware
02:29AM 49.9710 8.9080 137° Southeast 415 478 35,000  Level FlightAware
02:29AM 49.9130 8.9920 137° Southeast 417 480 35,000  Level FlightAware
02:30AM 49.8540 9.0770 137° Southeast 421 484 35,000  Level FlightAware
02:31AM 49.7930 9.1650 137° Southeast 424 488 35,000  Level FlightAware
02:32AM 49.7170 9.2740 137° Southeast 420 483 35,000  Level FlightAware
02:32AM 49.6560 9.3610 137° Southeast 420 483 35,000 -120 Level FlightAware
02:33AM 49.5950 9.4560 135° Southeast 429 494 34,900 -1,440 Descending FlightAware
02:34AM 49.5020 9.6190 131° Southeast 419 482 32,300 -2,280 Descending FlightAware
02:35AM 49.4520 9.7070 131° Southeast 415 478 30,800 -3,000 Descending FlightAware
02:36AM 49.3950 9.8060 131° Southeast 423 487 28,100 -3,120 Descending FlightAware
02:36AM 49.3430 9.8950 132° Southeast 420 483 26,400 -2,340 Descending FlightAware
02:37AM 49.2970 9.9740 132° Southeast 408 470 25,200 -1,020 Descending FlightAware
02:38AM 49.2360 10.0790 132° Southeast 409 471 25,000 -180 Descending FlightAware
02:38AM 49.1930 10.1530 132° Southeast 411 473 25,000  Level FlightAware
02:39AM 49.1440 10.2370 132° Southeast 411 473 25,000  Level FlightAware
02:40AM 49.1090 10.2940 133° Southeast 25,000  Level FlightAware
02:40AM 49.0800 10.3390 135° Southeast 412 474 25,000  Level FlightAware
02:41AM 49.0190 10.4370 133° Southeast 414 476 25,000  Level FlightAware
02:41AM 48.9690 10.5170 134° Southeast 414 476 25,000  Level FlightAware
02:42AM 48.9090 10.6130 134° Southeast 414 476 25,000 -180 Level FlightAware
02:43AM 48.8590 10.6910 134° Southeast 413 475 24,800 -2,100 Descending FlightAware
02:44AM 48.7980 10.7880 134° Southeast 422 486 22,100 -3,360 Descending FlightAware
02:44AM 48.7580 10.8510 134° Southeast 417 480 20,600 -2,940 Descending FlightAware
02:45AM 48.6910 10.9540 135° Southeast 405 466 18,200 -2,820 Descending FlightAware
02:46AM 48.6300 11.0390 137° Southeast 390 449 16,200 -2,400 Descending FlightAware
02:46AM 48.5920 11.0900 138° Southeast 385 443 15,200 -1,380 Descending FlightAware
02:47AM 48.5260 11.1790 138° Southeast 377 434 14,400 -1,800 Descending FlightAware
02:48AM 48.4660 11.2600 138° Southeast 365 420 12,400 -2,340 Descending FlightAware
02:48AM 48.4230 11.3390 129° Southeast 361 415 11,100 -1,020 Descending FlightAware
02:49AM 48.4230 11.4600 90° East 342 394 11,000 -60 Descending FlightAware
02:50AM 48.4340 11.5760 82° East 291 335 11,000 -240 Level FlightAware
02:51AM 48.4440 11.7160 84° East 280 322 10,500 -660 Descending FlightAware
02:52AM 48.4480 11.7630 83° East 274 315 10,000 -1,200 Descending FlightAware
02:52AM 48.4480 11.7730 90° East 273 314 9,900 -1,380 Descending FlightAware
02:52AM 48.4540 11.8470 83° East 272 313 9,000 -1,320 Descending FlightAware
02:53AM 48.4560 11.8760 84° East 270 311 8,700 -1,380 Descending FlightAware
02:54AM 48.4660 12.0090 83° East 273 314 7,100 -1,200 Descending FlightAware
02:54AM 48.4690 12.0460 83° East 273 314 6,900 -780 Descending FlightAware
02:55AM 48.4760 12.1410 84° East 268 308 6,200 -900 Descending FlightAware
02:55AM 48.4770 12.1520 82° East 268 308 6,100 -780 Descending FlightAware
02:56AM 48.4540 12.2000 126° Southeast 252 290 5,700 -840 Descending FlightAware
02:56AM 48.4380 12.2040 171° South 246 283 5,400 -960 Descending FlightAware
02:56AM 48.4090 12.1790 210° Southwest 228 262 5,000 -600 Descending FlightAware
02:57AM 48.3930 12.1500 230° Southwest 223 257 4,900 -180 Descending FlightAware
02:57AM 48.3870 12.1280 248° West 221 254 4,900  Level FlightAware
02:57AM 48.3870 12.1200 270° West 220 253 4,900 -300 Level FlightAware
02:58AM 48.3850 12.0670 267° West 219 252 4,700 -780 Descending FlightAware
02:58AM 48.3820 12.0230 264° West 210 242 4,100 -1,200 Descending FlightAware
02:58AM 48.3800 12.0010 262° West 203 234 3,800 -1,200 Descending FlightAware
02:59AM 48.3780 11.9670 265° West 190 219 3,300 -1,140 Descending FlightAware
02:59AM 48.3750 11.9310 263° West 170 196 2,800 -540 Descending FlightAware
03:00AM 48.3730 11.9000 264° West 169 194 2,800 -840 Level FlightAware
03:00AM 48.3710 11.8740 263° West 135 155 2,100 -1,200 Descending FlightAware
03:01AM 48.3690 11.8460 264° West 133 153 1,700 -780 Descending FlightAware
03:01AM 48.3680 11.8360 261° West 132 152 1,600 -600 Descending FlightAware